createdAt,value
2022-11-17T00:00:48.065Z,4.31
2022-11-17T00:03:16.968Z,4.32
2022-11-17T00:05:45.730Z,4.29
2022-11-17T00:08:15.405Z,4.23
2022-11-17T00:10:43.677Z,4.15
2022-11-17T00:13:29.342Z,4.06
2022-11-17T00:15:57.662Z,4.03
2022-11-17T00:18:43.786Z,4.01
2022-11-17T00:21:23.816Z,4.00
2022-11-17T00:23:54.082Z,3.98
2022-11-17T00:26:24.077Z,3.99
2022-11-17T00:28:53.834Z,3.99
2022-11-17T00:31:41.196Z,3.98
2022-11-17T00:34:14.020Z,3.97
2022-11-17T00:36:44.191Z,3.88
2022-11-17T00:39:15.764Z,3.85
2022-11-17T00:41:44.461Z,3.77
2022-11-17T00:44:13.345Z,3.77
2022-11-17T00:46:42.000Z,3.74
2022-11-17T00:49:11.643Z,3.75
2022-11-17T00:51:40.088Z,3.74
2022-11-17T00:54:11.810Z,3.76
2022-11-17T00:56:41.977Z,3.76
2022-11-17T00:59:10.505Z,3.79
2022-11-17T01:01:39.825Z,3.79
2022-11-17T01:04:08.682Z,3.79
2022-11-17T01:06:39.306Z,3.77
2022-11-17T01:09:12.392Z,3.78
2022-11-17T01:11:42.440Z,3.77
2022-11-17T01:14:14.007Z,3.67
2022-11-17T01:16:42.524Z,3.71
2022-11-17T01:19:12.546Z,3.71
2022-11-17T01:21:40.929Z,3.77
2022-11-17T01:24:12.301Z,3.78
2022-11-17T01:26:42.629Z,3.73
2022-11-17T01:29:14.017Z,3.73
2022-11-17T01:31:44.370Z,3.72
2022-11-17T01:34:13.261Z,3.79
2022-11-17T01:37:00.974Z,3.75
2022-11-17T01:39:31.664Z,3.73
2022-11-17T01:42:04.589Z,3.72
2022-11-17T01:44:59.268Z,3.71
2022-11-17T01:47:33.961Z,3.72
2022-11-17T01:50:08.171Z,3.69
2022-11-17T01:52:39.123Z,3.67
2022-11-17T01:55:09.733Z,3.68
2022-11-17T01:57:45.158Z,3.69
2022-11-17T02:00:14.513Z,3.62
2022-11-17T02:02:47.553Z,3.54
2022-11-17T02:05:29.449Z,3.53
2022-11-17T02:08:00.837Z,3.65
2022-11-17T02:10:31.905Z,3.65
2022-11-17T02:13:01.915Z,3.63
2022-11-17T02:15:30.584Z,3.69
2022-11-17T02:18:00.404Z,3.59
2022-11-17T02:20:42.592Z,3.56
2022-11-17T02:23:41.939Z,3.58
2022-11-17T02:26:25.226Z,3.57
2022-11-17T02:29:04.270Z,3.55
2022-11-17T02:31:43.575Z,3.59
2022-11-17T02:34:24.866Z,3.56
2022-11-17T02:36:59.999Z,3.55
2022-11-17T02:39:34.637Z,3.54
2022-11-17T02:42:10.358Z,3.52
2022-11-17T02:44:43.133Z,3.50
2022-11-17T02:47:16.678Z,3.45
2022-11-17T02:49:50.253Z,3.43
2022-11-17T02:52:20.181Z,3.37
2022-11-17T02:54:48.468Z,3.38
2022-11-17T02:57:29.909Z,3.40
2022-11-17T03:00:02.117Z,3.39
2022-11-17T03:02:48.028Z,3.37
2022-11-17T03:05:21.870Z,3.38
2022-11-17T03:08:08.106Z,3.37
2022-11-17T03:10:50.374Z,3.41
2022-11-17T03:13:25.120Z,3.42
2022-11-17T03:16:00.604Z,3.44
2022-11-17T03:18:36.161Z,3.46
2022-11-17T03:21:11.809Z,3.52
2022-11-17T03:23:43.713Z,3.49
2022-11-17T03:26:14.755Z,3.46
2022-11-17T03:28:47.407Z,3.46
2022-11-17T03:31:18.681Z,3.46
2022-11-17T03:33:50.653Z,3.48
2022-11-17T03:36:23.897Z,3.48
2022-11-17T03:38:58.116Z,3.47
2022-11-17T03:41:29.857Z,3.45
2022-11-17T03:44:00.046Z,3.45
2022-11-17T03:46:31.265Z,3.45
2022-11-17T03:49:09.912Z,3.37
2022-11-17T03:51:38.804Z,3.38
2022-11-17T03:54:08.832Z,3.41
2022-11-17T03:56:45.323Z,3.43
2022-11-17T03:59:18.608Z,3.44
2022-11-17T04:01:48.343Z,3.45
2022-11-17T04:04:18.074Z,3.41
2022-11-17T04:06:46.907Z,3.39
2022-11-17T04:09:17.651Z,3.41
2022-11-17T04:12:07.457Z,3.40
2022-11-17T04:14:53.082Z,3.39
2022-11-17T04:17:22.978Z,3.41
2022-11-17T04:19:51.313Z,3.44
2022-11-17T04:22:19.621Z,3.44
2022-11-17T04:24:47.923Z,3.44
2022-11-17T04:27:33.693Z,3.46
2022-11-17T04:30:02.022Z,3.46
2022-11-17T04:32:31.813Z,3.46
2022-11-17T04:35:00.212Z,3.46
2022-11-17T04:37:28.534Z,3.46
2022-11-17T04:39:56.831Z,3.44
2022-11-17T04:42:24.169Z,3.50
2022-11-17T04:44:52.516Z,3.50
2022-11-17T04:47:20.842Z,3.47
2022-11-17T04:49:50.533Z,3.46
2022-11-17T04:52:18.881Z,3.54
2022-11-17T04:54:47.176Z,3.48
2022-11-17T04:57:15.514Z,3.47
2022-11-17T04:59:43.837Z,3.50
2022-11-17T05:02:12.239Z,3.46
2022-11-17T05:04:59.081Z,3.44
2022-11-17T05:07:28.854Z,3.47
2022-11-17T05:09:57.248Z,3.46
2022-11-17T05:12:42.850Z,3.51
2022-11-17T05:15:11.357Z,3.50
2022-11-17T05:17:38.662Z,3.53
2022-11-17T05:20:07.888Z,3.52
2022-11-17T05:22:54.759Z,3.53
2022-11-17T05:25:23.101Z,3.56
2022-11-17T05:27:51.414Z,3.56
2022-11-17T05:30:19.718Z,3.56
2022-11-17T05:32:48.050Z,3.57
2022-11-17T05:35:16.449Z,3.57
2022-11-17T05:37:46.117Z,3.57
2022-11-17T05:40:14.442Z,3.54
2022-11-17T05:42:42.760Z,3.58
2022-11-17T05:45:11.379Z,3.58
2022-11-17T05:47:40.123Z,3.58
2022-11-17T05:50:08.804Z,3.59
2022-11-17T05:52:37.166Z,3.60
2022-11-17T05:55:08.322Z,3.58
2022-11-17T05:57:36.797Z,3.60
2022-11-17T06:00:06.249Z,3.62
2022-11-17T06:02:40.472Z,3.62
2022-11-17T06:05:12.368Z,3.69
2022-11-17T06:07:44.646Z,3.73
2022-11-17T06:10:14.518Z,3.72
2022-11-17T06:12:42.798Z,3.73
2022-11-17T06:15:11.669Z,3.77
2022-11-17T06:17:44.099Z,3.72
2022-11-17T06:20:16.737Z,3.68
2022-11-17T06:22:48.303Z,3.69
2022-11-17T06:25:20.504Z,3.71
2022-11-17T06:27:51.425Z,3.73
2022-11-17T06:30:20.207Z,3.75
2022-11-17T06:32:50.428Z,3.80
2022-11-17T06:35:18.998Z,3.86
2022-11-17T06:37:47.343Z,3.92
2022-11-17T06:40:16.492Z,3.90
2022-11-17T06:43:08.312Z,3.91
2022-11-17T06:45:37.862Z,3.90
2022-11-17T06:48:07.241Z,3.89
2022-11-17T06:50:35.675Z,3.88
2022-11-17T06:53:07.089Z,3.89
2022-11-17T06:55:36.692Z,3.91
2022-11-17T06:58:08.133Z,3.87
2022-11-17T07:00:37.278Z,3.91
2022-11-17T07:03:09.203Z,3.89
2022-11-17T07:05:40.197Z,3.90
2022-11-17T07:08:10.183Z,3.93
2022-11-17T07:10:38.880Z,3.92
2022-11-17T07:13:08.914Z,3.94
2022-11-17T07:15:37.331Z,3.96
2022-11-17T07:18:05.727Z,3.98
2022-11-17T07:20:34.078Z,3.98
2022-11-17T07:23:02.490Z,3.98
2022-11-17T07:25:30.892Z,3.95
2022-11-17T07:28:00.293Z,3.98
2022-11-17T07:30:30.262Z,4.03
2022-11-17T07:32:59.902Z,4.03
2022-11-17T07:35:29.068Z,4.03
2022-11-17T07:38:01.544Z,4.04
2022-11-17T07:40:30.416Z,4.13
2022-11-17T07:42:58.846Z,4.16
2022-11-17T07:45:31.882Z,4.19
2022-11-17T07:48:03.508Z,4.17
2022-11-17T07:50:31.887Z,4.16
2022-11-17T07:53:00.535Z,4.19
2022-11-17T07:55:28.937Z,4.21
2022-11-17T07:57:59.031Z,4.22
2022-11-17T08:00:28.447Z,4.20
2022-11-17T08:02:57.301Z,4.16
2022-11-17T08:05:30.560Z,4.17
2022-11-17T08:08:00.313Z,4.19
2022-11-17T08:10:31.348Z,4.20
2022-11-17T08:13:00.878Z,4.20
2022-11-17T08:15:29.549Z,4.27
2022-11-17T08:17:59.509Z,4.26
2022-11-17T08:20:30.229Z,4.27
2022-11-17T08:22:58.743Z,4.33
2022-11-17T08:25:28.309Z,4.37
2022-11-17T08:27:57.825Z,4.39
2022-11-17T08:30:28.580Z,4.39
2022-11-17T08:32:56.944Z,4.38
2022-11-17T08:35:26.349Z,4.43
2022-11-17T08:37:56.344Z,4.46
2022-11-17T08:40:24.739Z,4.46
2022-11-17T08:43:00.412Z,4.51
2022-11-17T08:45:29.700Z,4.48
2022-11-17T08:47:58.337Z,4.50
2022-11-17T08:50:27.137Z,4.51
2022-11-17T08:52:56.884Z,4.51
2022-11-17T08:55:26.393Z,4.52
2022-11-17T08:57:54.973Z,4.48
2022-11-17T09:00:23.779Z,4.55
2022-11-17T09:02:52.282Z,4.54
2022-11-17T09:05:21.068Z,4.56
2022-11-17T09:07:49.580Z,4.55
2022-11-17T09:10:19.555Z,4.56
2022-11-17T09:12:47.922Z,4.56
2022-11-17T09:15:16.538Z,4.57
2022-11-17T09:17:47.727Z,4.58
2022-11-17T09:20:16.942Z,4.58
2022-11-17T09:22:45.449Z,4.58
2022-11-17T09:25:14.611Z,4.57
2022-11-17T09:27:44.416Z,4.59
2022-11-17T09:30:13.274Z,4.57
2022-11-17T09:32:41.903Z,4.58
2022-11-17T09:35:10.929Z,4.56
2022-11-17T09:37:39.399Z,4.50
2022-11-17T09:40:11.713Z,4.49
2022-11-17T09:42:41.261Z,4.52
2022-11-17T09:45:19.354Z,4.54
2022-11-17T09:48:07.043Z,4.50
2022-11-17T09:50:42.595Z,4.43
2022-11-17T09:53:16.728Z,4.44
2022-11-17T09:55:47.300Z,4.47
2022-11-17T09:58:23.614Z,4.48
2022-11-17T10:00:54.403Z,4.48
2022-11-17T10:03:26.769Z,4.52
2022-11-17T10:05:55.632Z,4.47
2022-11-17T10:08:35.983Z,4.53
2022-11-17T10:11:24.804Z,4.55
2022-11-17T10:13:53.317Z,4.49
2022-11-17T10:16:23.300Z,4.47
2022-11-17T10:18:51.717Z,4.44
2022-11-17T10:21:20.126Z,4.46
2022-11-17T10:23:57.115Z,4.48
2022-11-17T10:26:25.784Z,4.52
2022-11-17T10:29:08.695Z,4.53
2022-11-17T10:31:44.182Z,4.56
2022-11-17T10:34:13.965Z,4.57
2022-11-17T10:36:51.524Z,4.59
2022-11-17T10:39:38.364Z,4.60
2022-11-17T10:42:22.587Z,4.59
2022-11-17T10:44:54.527Z,4.55
2022-11-17T10:47:30.190Z,4.59
2022-11-17T10:50:18.868Z,4.55
2022-11-17T10:52:47.699Z,4.59
2022-11-17T10:55:26.522Z,4.55
2022-11-17T10:57:59.434Z,4.59
2022-11-17T11:00:32.980Z,4.58
2022-11-17T11:03:18.783Z,4.65
2022-11-17T11:06:05.170Z,4.66
2022-11-17T11:08:41.719Z,4.68
2022-11-17T11:11:18.610Z,4.57
2022-11-17T11:13:53.338Z,4.62
2022-11-17T11:16:21.763Z,4.65
2022-11-17T11:18:53.482Z,4.69
2022-11-17T11:21:37.931Z,4.69
2022-11-17T11:24:16.380Z,4.73
2022-11-17T11:26:54.037Z,4.71
2022-11-17T11:29:30.975Z,4.69
2022-11-17T11:32:18.834Z,4.69
2022-11-17T11:35:31.723Z,4.70
2022-11-17T11:38:15.954Z,4.69
2022-11-17T11:41:02.430Z,4.66
2022-11-17T11:43:40.921Z,4.64
2022-11-17T11:46:17.114Z,4.60
2022-11-17T11:48:49.053Z,4.59
2022-11-17T11:51:23.662Z,4.58
2022-11-17T11:53:58.046Z,4.66
2022-11-17T11:56:29.266Z,4.68
2022-11-17T11:59:01.930Z,4.71
2022-11-17T12:01:38.119Z,4.72
2022-11-17T12:04:17.816Z,4.71
2022-11-17T12:06:54.701Z,4.79
2022-11-17T12:09:47.699Z,4.83
2022-11-17T12:12:18.418Z,4.83
2022-11-17T12:15:13.620Z,4.81
2022-11-17T12:17:57.562Z,4.81
2022-11-17T12:20:57.086Z,4.76
2022-11-17T12:23:49.033Z,4.77
2022-11-17T12:26:26.494Z,4.66
2022-11-17T12:29:26.488Z,4.73
2022-11-17T12:31:56.027Z,4.76
2022-11-17T12:34:27.877Z,4.76
2022-11-17T12:37:19.370Z,4.73
2022-11-17T12:40:31.110Z,4.69
2022-11-17T12:43:23.772Z,4.72
2022-11-17T12:46:05.125Z,4.74
2022-11-17T12:48:36.759Z,4.76
2022-11-17T12:51:12.515Z,4.80
2022-11-17T12:53:53.657Z,4.80
2022-11-17T12:56:38.456Z,4.78
2022-11-17T12:59:53.360Z,4.80
2022-11-17T13:02:37.500Z,4.82
2022-11-17T13:05:14.547Z,4.79
2022-11-17T13:07:42.866Z,4.76
2022-11-17T13:10:25.546Z,4.75
2022-11-17T13:13:12.979Z,4.80
2022-11-17T13:15:44.644Z,4.79
2022-11-17T13:18:22.054Z,4.80
2022-11-17T13:20:50.425Z,4.74
2022-11-17T13:23:22.433Z,4.80
2022-11-17T13:25:51.299Z,4.77
2022-11-17T13:28:33.728Z,4.75
2022-11-17T13:31:03.631Z,4.77
2022-11-17T13:33:36.951Z,4.78
2022-11-17T13:36:17.859Z,4.82
2022-11-17T13:38:50.258Z,4.80
2022-11-17T13:41:20.907Z,4.79
2022-11-17T13:43:50.941Z,4.78
2022-11-17T13:46:20.928Z,4.75
2022-11-17T13:48:51.565Z,4.68
2022-11-17T13:51:33.147Z,4.71
2022-11-17T13:54:07.203Z,4.69
2022-11-17T13:56:38.650Z,4.68
2022-11-17T13:59:22.879Z,4.68
2022-11-17T14:02:24.338Z,4.66
2022-11-17T14:05:23.039Z,4.66
2022-11-17T14:07:52.953Z,4.65
2022-11-17T14:10:33.016Z,4.62
2022-11-17T14:13:29.859Z,4.61
2022-11-17T14:16:00.746Z,4.59
2022-11-17T14:18:34.220Z,4.57
2022-11-17T14:21:14.719Z,4.58
2022-11-17T14:23:44.220Z,4.57
2022-11-17T14:26:20.268Z,4.55
2022-11-17T14:28:50.217Z,4.54
2022-11-17T14:31:18.875Z,4.55
2022-11-17T14:33:50.441Z,4.52
2022-11-17T14:36:19.330Z,4.57
2022-11-17T14:38:47.930Z,4.55
2022-11-17T14:41:17.103Z,4.62
2022-11-17T14:43:45.905Z,4.54
2022-11-17T14:46:20.605Z,4.49
2022-11-17T14:48:50.445Z,4.46
2022-11-17T14:51:19.211Z,4.44
2022-11-17T14:53:47.877Z,4.40
2022-11-17T14:56:18.932Z,4.34
2022-11-17T14:58:50.491Z,4.32
2022-11-17T15:01:20.828Z,4.32
2022-11-17T15:03:52.866Z,4.36
2022-11-17T15:06:21.383Z,4.34
2022-11-17T15:08:54.592Z,4.33
2022-11-17T15:11:23.003Z,4.33
2022-11-17T15:13:51.437Z,4.33
2022-11-17T15:16:20.127Z,4.28
2022-11-17T15:18:50.510Z,4.29
2022-11-17T15:21:18.978Z,4.28
2022-11-17T15:23:47.596Z,4.25
2022-11-17T15:26:18.727Z,4.25
2022-11-17T15:28:47.666Z,4.25
2022-11-17T15:31:17.842Z,4.28
2022-11-17T15:33:47.860Z,4.23
2022-11-17T15:36:20.806Z,4.22
2022-11-17T15:38:49.826Z,4.22
2022-11-17T15:41:18.298Z,4.22
2022-11-17T15:43:46.655Z,4.22
2022-11-17T15:46:17.321Z,4.21
2022-11-17T15:48:47.254Z,4.25
2022-11-17T15:51:19.179Z,4.24
2022-11-17T15:53:49.238Z,4.18
2022-11-17T15:56:19.894Z,4.18
2022-11-17T15:58:49.622Z,4.18
2022-11-17T16:01:26.747Z,4.15
2022-11-17T16:03:59.087Z,4.17
2022-11-17T16:06:29.124Z,4.13
2022-11-17T16:08:57.706Z,4.05
2022-11-17T16:11:27.012Z,4.11
2022-11-17T16:13:56.249Z,4.06
2022-11-17T16:16:26.194Z,4.04
2022-11-17T16:18:54.972Z,4.03
2022-11-17T16:21:23.534Z,3.96
2022-11-17T16:23:55.831Z,3.90
2022-11-17T16:26:26.972Z,3.93
2022-11-17T16:28:59.255Z,3.94
2022-11-17T16:31:29.271Z,3.90
2022-11-17T16:33:59.323Z,3.84
2022-11-17T16:36:34.557Z,3.81
2022-11-17T16:39:07.911Z,3.82
2022-11-17T16:41:37.887Z,3.79
2022-11-17T16:44:09.551Z,3.80
2022-11-17T16:46:38.188Z,3.76
2022-11-17T16:49:08.306Z,3.77
2022-11-17T16:51:36.786Z,3.86
2022-11-17T16:54:08.190Z,3.86
2022-11-17T16:56:36.561Z,3.78
2022-11-17T16:59:05.010Z,3.72
2022-11-17T17:01:34.799Z,3.73
2022-11-17T17:04:06.344Z,3.69
2022-11-17T17:06:35.365Z,3.69
2022-11-17T17:09:07.626Z,3.71
2022-11-17T17:11:37.373Z,3.73
2022-11-17T17:14:08.310Z,3.70
2022-11-17T17:16:38.667Z,3.66
2022-11-17T17:19:09.266Z,3.68
2022-11-17T17:21:38.815Z,3.66
2022-11-17T17:24:09.773Z,3.65
2022-11-17T17:26:39.218Z,3.66
2022-11-17T17:29:08.085Z,3.66
2022-11-17T17:31:38.469Z,3.65
2022-11-17T17:34:07.929Z,3.65
2022-11-17T17:36:38.489Z,3.64
2022-11-17T17:39:08.729Z,3.57
2022-11-17T17:41:40.908Z,3.59
2022-11-17T17:44:14.529Z,3.58
2022-11-17T17:46:43.610Z,3.51
2022-11-17T17:49:12.609Z,3.49
2022-11-17T17:51:44.081Z,3.47
2022-11-17T17:54:17.711Z,3.48
2022-11-17T17:56:46.630Z,3.47
2022-11-17T17:59:16.039Z,3.43
2022-11-17T18:01:46.214Z,3.41
2022-11-17T18:04:16.460Z,3.39
2022-11-17T18:06:47.931Z,3.37
2022-11-17T18:09:20.467Z,3.39
2022-11-17T18:11:51.157Z,3.35
2022-11-17T18:14:24.346Z,3.33
2022-11-17T18:16:53.908Z,3.33
2022-11-17T18:19:25.754Z,3.30
2022-11-17T18:21:56.589Z,3.23
2022-11-17T18:24:26.614Z,3.31
2022-11-17T18:26:54.979Z,3.26
2022-11-17T18:29:23.392Z,3.22
2022-11-17T18:31:51.893Z,3.20
2022-11-17T18:34:21.756Z,3.26
2022-11-17T18:36:50.639Z,3.24
2022-11-17T18:39:19.750Z,3.24
2022-11-17T18:41:49.760Z,3.23
2022-11-17T18:44:19.915Z,3.24
2022-11-17T18:46:48.825Z,3.21
2022-11-17T18:49:17.468Z,3.22
2022-11-17T18:51:46.427Z,3.17
2022-11-17T18:54:15.086Z,3.18
2022-11-17T18:56:44.617Z,3.14
2022-11-17T18:59:14.881Z,3.12
2022-11-17T19:01:44.216Z,3.12
2022-11-17T19:04:14.479Z,3.12
2022-11-17T19:06:43.139Z,3.10
2022-11-17T19:09:11.871Z,3.11
2022-11-17T19:11:40.452Z,3.10
2022-11-17T19:14:08.866Z,3.08
2022-11-17T19:16:44.102Z,3.11
2022-11-17T19:19:14.990Z,3.04
2022-11-17T19:21:44.395Z,2.99
2022-11-17T19:24:13.198Z,3.00
2022-11-17T19:26:42.694Z,3.01
2022-11-17T19:29:17.140Z,3.00
2022-11-17T19:31:48.814Z,3.01
2022-11-17T19:34:17.421Z,3.02
2022-11-17T19:40:20.214Z,3.00
2022-11-17T19:42:50.041Z,2.98
2022-11-17T19:45:18.968Z,3.05
2022-11-17T19:47:49.293Z,3.01
2022-11-17T19:50:18.312Z,2.95
2022-11-17T19:52:46.782Z,2.90
2022-11-17T19:55:15.188Z,2.86
2022-11-17T19:57:43.553Z,2.86
2022-11-17T20:00:13.237Z,2.81
2022-11-17T20:02:41.664Z,2.75
2022-11-17T20:05:11.606Z,2.68
2022-11-17T20:07:40.150Z,2.64
2022-11-17T20:10:09.059Z,2.61
2022-11-17T20:12:37.667Z,2.62
2022-11-17T20:15:06.474Z,2.63
2022-11-17T20:17:34.899Z,2.60
2022-11-17T20:20:03.291Z,2.58
2022-11-17T20:22:33.575Z,2.56
2022-11-17T20:25:03.680Z,2.57
2022-11-17T20:27:32.852Z,2.58
2022-11-17T20:30:01.568Z,2.58
2022-11-17T20:32:30.729Z,2.58
2022-11-17T20:34:59.234Z,2.57
2022-11-17T20:37:27.575Z,2.54
2022-11-17T20:40:05.257Z,2.58
2022-11-17T20:42:33.629Z,2.53
2022-11-17T20:45:01.966Z,2.61
2022-11-17T20:47:31.528Z,2.53
2022-11-17T20:50:00.403Z,2.50
2022-11-17T20:52:28.854Z,2.49
2022-11-17T20:54:58.647Z,2.47
2022-11-17T20:57:27.066Z,2.44
2022-11-17T20:59:55.464Z,2.41
2022-11-17T21:02:23.875Z,2.39
2022-11-17T21:04:52.378Z,2.39
2022-11-17T21:07:20.850Z,2.39
2022-11-17T21:09:49.213Z,2.38
2022-11-17T21:12:18.981Z,2.37
2022-11-17T21:14:47.319Z,2.38
2022-11-17T21:17:29.609Z,2.36
2022-11-17T21:19:57.926Z,2.36
2022-11-17T21:22:26.317Z,2.35
2022-11-17T21:24:54.660Z,2.35
2022-11-17T21:27:24.458Z,2.30
2022-11-17T21:29:52.884Z,2.32
2022-11-17T21:32:21.290Z,2.34
2022-11-17T21:34:50.029Z,2.33
2022-11-17T21:37:18.567Z,2.32
2022-11-17T21:39:46.903Z,2.31
2022-11-17T21:42:15.233Z,2.30
2022-11-17T21:44:45.018Z,2.31
2022-11-17T21:47:13.370Z,2.32
2022-11-17T21:49:41.766Z,2.31
2022-11-17T21:52:10.367Z,2.30
2022-11-17T21:54:38.807Z,2.30
2022-11-17T21:57:07.248Z,2.30
2022-11-17T21:59:35.677Z,2.28
2022-11-17T22:02:05.484Z,2.22
2022-11-17T22:04:33.942Z,2.21
2022-11-17T22:07:02.429Z,2.23
2022-11-17T22:09:30.853Z,2.16
2022-11-17T22:11:59.269Z,2.14
2022-11-17T22:14:27.679Z,2.20
2022-11-17T22:16:56.479Z,2.17
2022-11-17T22:19:29.368Z,2.20
2022-11-17T22:21:57.800Z,2.20
2022-11-17T22:24:26.167Z,2.19
2022-11-17T22:26:54.523Z,2.18
2022-11-17T22:29:23.036Z,2.23
2022-11-17T22:31:51.710Z,2.18
2022-11-17T22:34:20.276Z,2.19
2022-11-17T22:36:49.999Z,2.19
2022-11-17T22:39:19.666Z,2.17
2022-11-17T22:41:48.241Z,2.21
2022-11-17T22:44:17.294Z,2.19
2022-11-17T22:46:45.662Z,2.19
2022-11-17T22:49:14.468Z,2.18
2022-11-17T22:52:00.463Z,2.15
2022-11-17T22:54:30.415Z,2.09
2022-11-17T22:56:59.188Z,2.13
2022-11-17T22:59:28.457Z,2.11
2022-11-17T23:01:56.972Z,2.08
2022-11-17T23:04:25.834Z,1.95
2022-11-17T23:06:54.308Z,1.98
2022-11-17T23:09:22.773Z,1.98
2022-11-17T23:11:52.502Z,1.96
2022-11-17T23:14:20.865Z,1.97
2022-11-17T23:16:49.232Z,1.99
2022-11-17T23:19:17.912Z,1.98
2022-11-17T23:21:46.502Z,1.96
2022-11-17T23:24:14.900Z,2.00
2022-11-17T23:26:43.916Z,1.97
2022-11-17T23:29:14.016Z,1.96
2022-11-17T23:31:42.631Z,1.94
2022-11-17T23:34:12.113Z,1.96
2022-11-17T23:36:40.530Z,1.93
2022-11-17T23:39:09.092Z,1.99
2022-11-17T23:41:37.422Z,1.93
2022-11-17T23:44:06.378Z,1.91
2022-11-17T23:46:36.046Z,1.90
2022-11-17T23:49:04.671Z,1.90
2022-11-17T23:51:33.006Z,1.86
2022-11-17T23:54:02.908Z,1.86
2022-11-17T23:56:33.590Z,1.83
2022-11-17T23:59:02.032Z,1.77
